sensor_id;sensor_type;location;lat;lon;timestamp;P1;durP1;ratioP1;P2;durP2;ratioP2
68108;SDS011;54893;49.864;19.084;2024-02-15T00:00:20;26.73;;;9.80;;
68108;SDS011;54893;49.864;19.084;2024-02-15T00:05:22;23.38;;;9.50;;
68108;SDS011;54893;49.864;19.084;2024-02-15T00:10:22;24.00;;;10.03;;
68108;SDS011;54893;49.864;19.084;2024-02-15T00:15:24;27.33;;;9.73;;
68108;SDS011;54893;49.864;19.084;2024-02-15T00:20:25;23.87;;;8.70;;
68108;SDS011;54893;49.864;19.084;2024-02-15T00:25:25;25.15;;;9.65;;
68108;SDS011;54893;49.864;19.084;2024-02-15T00:30:26;27.37;;;10.63;;
68108;SDS011;54893;49.864;19.084;2024-02-15T00:35:27;23.80;;;9.20;;
68108;SDS011;54893;49.864;19.084;2024-02-15T00:40:27;21.17;;;8.53;;
68108;SDS011;54893;49.864;19.084;2024-02-15T00:45:28;19.50;;;8.30;;
68108;SDS011;54893;49.864;19.084;2024-02-15T00:50:28;22.33;;;7.73;;
68108;SDS011;54893;49.864;19.084;2024-02-15T00:55:29;21.40;;;8.50;;
68108;SDS011;54893;49.864;19.084;2024-02-15T01:00:29;21.07;;;8.60;;
68108;SDS011;54893;49.864;19.084;2024-02-15T01:05:30;19.70;;;8.73;;
68108;SDS011;54893;49.864;19.084;2024-02-15T01:10:30;19.87;;;8.40;;
68108;SDS011;54893;49.864;19.084;2024-02-15T01:15:31;23.90;;;8.77;;
68108;SDS011;54893;49.864;19.084;2024-02-15T01:20:31;20.03;;;7.90;;
68108;SDS011;54893;49.864;19.084;2024-02-15T01:25:32;22.70;;;9.13;;
68108;SDS011;54893;49.864;19.084;2024-02-15T01:30:32;23.83;;;9.20;;
68108;SDS011;54893;49.864;19.084;2024-02-15T01:35:32;21.07;;;8.50;;
68108;SDS011;54893;49.864;19.084;2024-02-15T01:40:33;21.23;;;8.23;;
68108;SDS011;54893;49.864;19.084;2024-02-15T01:45:35;23.58;;;9.45;;
68108;SDS011;54893;49.864;19.084;2024-02-15T01:50:35;24.83;;;9.33;;
68108;SDS011;54893;49.864;19.084;2024-02-15T01:55:37;22.50;;;9.13;;
68108;SDS011;54893;49.864;19.084;2024-02-15T02:00:37;21.95;;;8.63;;
68108;SDS011;54893;49.864;19.084;2024-02-15T02:05:40;18.73;;;7.17;;
68108;SDS011;54893;49.864;19.084;2024-02-15T02:10:41;16.83;;;6.72;;
68108;SDS011;54893;49.864;19.084;2024-02-15T02:15:42;13.43;;;5.60;;
68108;SDS011;54893;49.864;19.084;2024-02-15T02:20:42;11.07;;;4.90;;
68108;SDS011;54893;49.864;19.084;2024-02-15T02:25:43;12.37;;;5.07;;
68108;SDS011;54893;49.864;19.084;2024-02-15T02:30:44;13.18;;;4.97;;
68108;SDS011;54893;49.864;19.084;2024-02-15T02:35:45;11.88;;;5.40;;
68108;SDS011;54893;49.864;19.084;2024-02-15T02:40:46;13.93;;;5.03;;
68108;SDS011;54893;49.864;19.084;2024-02-15T02:45:46;16.20;;;5.60;;
68108;SDS011;54893;49.864;19.084;2024-02-15T02:50:49;21.13;;;7.53;;
68108;SDS011;54893;49.864;19.084;2024-02-15T02:55:51;21.60;;;8.77;;
68108;SDS011;54893;49.864;19.084;2024-02-15T03:00:52;19.08;;;8.07;;
68108;SDS011;54893;49.864;19.084;2024-02-15T03:05:52;18.33;;;7.63;;
68108;SDS011;54893;49.864;19.084;2024-02-15T03:10:54;15.30;;;7.25;;
68108;SDS011;54893;49.864;19.084;2024-02-15T03:15:54;17.17;;;7.57;;
68108;SDS011;54893;49.864;19.084;2024-02-15T03:20:54;19.87;;;7.20;;
68108;SDS011;54893;49.864;19.084;2024-02-15T03:25:55;16.17;;;7.17;;
68108;SDS011;54893;49.864;19.084;2024-02-15T03:30:55;16.87;;;7.03;;
68108;SDS011;54893;49.864;19.084;2024-02-15T03:35:56;18.37;;;7.03;;
68108;SDS011;54893;49.864;19.084;2024-02-15T03:40:59;13.97;;;6.60;;
68108;SDS011;54893;49.864;19.084;2024-02-15T03:45:59;19.30;;;6.50;;
68108;SDS011;54893;49.864;19.084;2024-02-15T03:51:00;13.60;;;6.23;;
68108;SDS011;54893;49.864;19.084;2024-02-15T03:56:01;12.85;;;5.75;;
68108;SDS011;54893;49.864;19.084;2024-02-15T04:01:02;16.67;;;6.43;;
68108;SDS011;54893;49.864;19.084;2024-02-15T04:06:06;17.92;;;6.07;;
68108;SDS011;54893;49.864;19.084;2024-02-15T04:11:07;16.37;;;6.00;;
68108;SDS011;54893;49.864;19.084;2024-02-15T04:16:08;17.00;;;6.00;;
68108;SDS011;54893;49.864;19.084;2024-02-15T04:21:09;14.60;;;5.78;;
68108;SDS011;54893;49.864;19.084;2024-02-15T04:26:09;14.67;;;5.87;;
68108;SDS011;54893;49.864;19.084;2024-02-15T04:31:13;17.85;;;7.68;;
68108;SDS011;54893;49.864;19.084;2024-02-15T04:36:15;19.27;;;6.67;;
68108;SDS011;54893;49.864;19.084;2024-02-15T04:41:23;19.90;;;8.13;;
68108;SDS011;54893;49.864;19.084;2024-02-15T04:46:23;20.57;;;7.77;;
68108;SDS011;54893;49.864;19.084;2024-02-15T04:51:24;20.40;;;6.97;;
68108;SDS011;54893;49.864;19.084;2024-02-15T04:56:27;18.25;;;7.60;;
68108;SDS011;54893;49.864;19.084;2024-02-15T05:01:29;17.60;;;6.85;;
68108;SDS011;54893;49.864;19.084;2024-02-15T05:06:33;17.50;;;7.67;;
68108;SDS011;54893;49.864;19.084;2024-02-15T05:11:33;19.07;;;7.80;;
68108;SDS011;54893;49.864;19.084;2024-02-15T05:16:38;20.50;;;8.23;;
68108;SDS011;54893;49.864;19.084;2024-02-15T05:21:43;19.77;;;8.52;;
68108;SDS011;54893;49.864;19.084;2024-02-15T05:26:47;17.08;;;7.82;;
68108;SDS011;54893;49.864;19.084;2024-02-15T05:31:48;16.98;;;7.95;;
68108;SDS011;54893;49.864;19.084;2024-02-15T05:36:51;19.50;;;7.97;;
68108;SDS011;54893;49.864;19.084;2024-02-15T05:41:52;21.75;;;9.40;;
68108;SDS011;54893;49.864;19.084;2024-02-15T05:46:52;20.13;;;9.00;;
68108;SDS011;54893;49.864;19.084;2024-02-15T05:51:53;23.98;;;9.57;;
68108;SDS011;54893;49.864;19.084;2024-02-15T05:56:53;22.05;;;9.57;;
68108;SDS011;54893;49.864;19.084;2024-02-15T06:01:55;26.75;;;10.30;;
68108;SDS011;54893;49.864;19.084;2024-02-15T06:06:57;25.55;;;10.63;;
68108;SDS011;54893;49.864;19.084;2024-02-15T06:12:00;25.30;;;8.70;;
68108;SDS011;54893;49.864;19.084;2024-02-15T06:17:01;23.33;;;8.80;;
68108;SDS011;54893;49.864;19.084;2024-02-15T06:22:02;20.40;;;8.73;;
68108;SDS011;54893;49.864;19.084;2024-02-15T06:27:04;23.77;;;10.23;;
68108;SDS011;54893;49.864;19.084;2024-02-15T06:32:05;25.58;;;10.27;;
68108;SDS011;54893;49.864;19.084;2024-02-15T06:37:37;25.83;;;10.80;;
68108;SDS011;54893;49.864;19.084;2024-02-15T06:42:56;31.33;;;11.43;;
68108;SDS011;54893;49.864;19.084;2024-02-15T06:47:57;25.60;;;10.07;;
68108;SDS011;54893;49.864;19.084;2024-02-15T06:52:58;27.87;;;11.20;;
68108;SDS011;54893;49.864;19.084;2024-02-15T06:57:58;35.20;;;11.40;;
68108;SDS011;54893;49.864;19.084;2024-02-15T07:02:59;29.90;;;13.33;;
68108;SDS011;54893;49.864;19.084;2024-02-15T07:07:59;33.90;;;14.77;;
68108;SDS011;54893;49.864;19.084;2024-02-15T07:13:00;34.58;;;14.00;;
68108;SDS011;54893;49.864;19.084;2024-02-15T07:18:01;36.03;;;13.27;;
68108;SDS011;54893;49.864;19.084;2024-02-15T07:23:01;35.03;;;13.37;;
68108;SDS011;54893;49.864;19.084;2024-02-15T07:28:02;30.93;;;13.03;;
68108;SDS011;54893;49.864;19.084;2024-02-15T07:33:03;35.87;;;13.30;;
68108;SDS011;54893;49.864;19.084;2024-02-15T07:38:04;34.47;;;13.88;;
68108;SDS011;54893;49.864;19.084;2024-02-15T07:43:05;29.88;;;12.15;;
68108;SDS011;54893;49.864;19.084;2024-02-15T07:48:06;28.97;;;11.17;;
68108;SDS011;54893;49.864;19.084;2024-02-15T07:53:07;25.95;;;10.85;;
68108;SDS011;54893;49.864;19.084;2024-02-15T07:58:08;28.13;;;11.33;;
68108;SDS011;54893;49.864;19.084;2024-02-15T08:03:08;24.80;;;11.10;;
68108;SDS011;54893;49.864;19.084;2024-02-15T08:08:09;25.77;;;10.80;;
68108;SDS011;54893;49.864;19.084;2024-02-15T08:13:10;27.02;;;11.30;;
68108;SDS011;54893;49.864;19.084;2024-02-15T08:18:11;25.03;;;11.33;;
68108;SDS011;54893;49.864;19.084;2024-02-15T08:23:12;29.33;;;10.20;;
68108;SDS011;54893;49.864;19.084;2024-02-15T08:28:13;25.60;;;10.77;;
68108;SDS011;54893;49.864;19.084;2024-02-15T08:33:13;22.30;;;8.60;;
68108;SDS011;54893;49.864;19.084;2024-02-15T08:38:14;18.73;;;7.70;;
68108;SDS011;54893;49.864;19.084;2024-02-15T08:43:14;16.67;;;6.73;;
68108;SDS011;54893;49.864;19.084;2024-02-15T08:48:18;16.97;;;6.60;;
68108;SDS011;54893;49.864;19.084;2024-02-15T08:53:18;15.23;;;6.80;;
68108;SDS011;54893;49.864;19.084;2024-02-15T08:58:19;13.77;;;6.47;;
68108;SDS011;54893;49.864;19.084;2024-02-15T09:03:21;18.38;;;6.55;;
68108;SDS011;54893;49.864;19.084;2024-02-15T09:08:21;13.87;;;5.07;;
68108;SDS011;54893;49.864;19.084;2024-02-15T09:13:22;10.53;;;4.83;;
68108;SDS011;54893;49.864;19.084;2024-02-15T09:18:22;10.13;;;4.70;;
68108;SDS011;54893;49.864;19.084;2024-02-15T09:23:23;11.10;;;4.70;;
68108;SDS011;54893;49.864;19.084;2024-02-15T09:28:25;15.77;;;6.45;;
68108;SDS011;54893;49.864;19.084;2024-02-15T09:33:26;11.73;;;5.23;;
68108;SDS011;54893;49.864;19.084;2024-02-15T09:38:26;10.33;;;4.60;;
68108;SDS011;54893;49.864;19.084;2024-02-15T09:43:27;7.30;;;3.50;;
68108;SDS011;54893;49.864;19.084;2024-02-15T09:48:29;6.07;;;2.80;;
68108;SDS011;54893;49.864;19.084;2024-02-15T09:53:32;5.53;;;2.17;;
68108;SDS011;54893;49.864;19.084;2024-02-15T09:58:33;6.28;;;2.00;;
68108;SDS011;54893;49.864;19.084;2024-02-15T10:03:36;5.90;;;2.10;;
68108;SDS011;54893;49.864;19.084;2024-02-15T10:08:38;5.60;;;2.30;;
68108;SDS011;54893;49.864;19.084;2024-02-15T10:13:38;4.10;;;1.50;;
68108;SDS011;54893;49.864;19.084;2024-02-15T10:18:39;3.75;;;1.48;;
68108;SDS011;54893;49.864;19.084;2024-02-15T10:23:40;4.03;;;1.20;;
68108;SDS011;54893;49.864;19.084;2024-02-15T10:28:40;3.83;;;1.60;;
68108;SDS011;54893;49.864;19.084;2024-02-15T10:33:41;5.93;;;2.07;;
68108;SDS011;54893;49.864;19.084;2024-02-15T10:38:41;3.40;;;1.20;;
68108;SDS011;54893;49.864;19.084;2024-02-15T10:43:42;3.30;;;1.10;;
68108;SDS011;54893;49.864;19.084;2024-02-15T10:48:46;2.55;;;1.00;;
68108;SDS011;54893;49.864;19.084;2024-02-15T10:53:47;4.37;;;1.63;;
68108;SDS011;54893;49.864;19.084;2024-02-15T10:59:19;8.57;;;1.58;;
68108;SDS011;54893;49.864;19.084;2024-02-15T11:04:27;4.78;;;1.63;;
68108;SDS011;54893;49.864;19.084;2024-02-15T11:09:32;5.90;;;2.00;;
68108;SDS011;54893;49.864;19.084;2024-02-15T11:14:33;6.53;;;2.63;;
68108;SDS011;54893;49.864;19.084;2024-02-15T11:24:35;4.83;;;1.83;;
68108;SDS011;54893;49.864;19.084;2024-02-15T11:29:51;5.27;;;2.20;;
68108;SDS011;54893;49.864;19.084;2024-02-15T11:35:07;8.43;;;2.65;;
68108;SDS011;54893;49.864;19.084;2024-02-15T11:40:11;6.18;;;2.38;;
68108;SDS011;54893;49.864;19.084;2024-02-15T11:45:13;11.02;;;4.50;;
68108;SDS011;54893;49.864;19.084;2024-02-15T11:50:15;6.10;;;2.85;;
68108;SDS011;54893;49.864;19.084;2024-02-15T11:55:20;5.60;;;2.03;;
68108;SDS011;54893;49.864;19.084;2024-02-15T12:00:24;4.68;;;2.10;;
68108;SDS011;54893;49.864;19.084;2024-02-15T12:05:43;5.07;;;1.70;;
68108;SDS011;54893;49.864;19.084;2024-02-15T12:11:02;5.43;;;2.60;;
68108;SDS011;54893;49.864;19.084;2024-02-15T12:16:21;7.50;;;2.50;;
68108;SDS011;54893;49.864;19.084;2024-02-15T12:21:40;7.23;;;3.23;;
68108;SDS011;54893;49.864;19.084;2024-02-15T12:26:41;7.45;;;3.35;;
68108;SDS011;54893;49.864;19.084;2024-02-15T12:31:42;6.20;;;3.10;;
68108;SDS011;54893;49.864;19.084;2024-02-15T12:36:44;9.57;;;3.43;;
68108;SDS011;54893;49.864;19.084;2024-02-15T12:41:48;8.57;;;3.78;;
68108;SDS011;54893;49.864;19.084;2024-02-15T12:46:55;7.25;;;3.22;;
68108;SDS011;54893;49.864;19.084;2024-02-15T12:57:34;7.03;;;3.00;;
68108;SDS011;54893;49.864;19.084;2024-02-15T13:02:36;6.73;;;3.53;;
68108;SDS011;54893;49.864;19.084;2024-02-15T13:07:37;7.55;;;3.92;;
68108;SDS011;54893;49.864;19.084;2024-02-15T13:12:38;6.80;;;3.20;;
68108;SDS011;54893;49.864;19.084;2024-02-15T13:17:38;7.37;;;3.43;;
68108;SDS011;54893;49.864;19.084;2024-02-15T13:22:39;8.93;;;4.57;;
68108;SDS011;54893;49.864;19.084;2024-02-15T13:27:40;11.88;;;4.30;;
68108;SDS011;54893;49.864;19.084;2024-02-15T13:32:41;8.67;;;4.10;;
68108;SDS011;54893;49.864;19.084;2024-02-15T13:37:48;8.37;;;4.30;;
68108;SDS011;54893;49.864;19.084;2024-02-15T13:42:49;8.33;;;4.30;;
68108;SDS011;54893;49.864;19.084;2024-02-15T13:47:54;8.35;;;4.57;;
68108;SDS011;54893;49.864;19.084;2024-02-15T13:52:55;7.95;;;4.28;;
68108;SDS011;54893;49.864;19.084;2024-02-15T13:57:57;10.70;;;5.23;;
68108;SDS011;54893;49.864;19.084;2024-02-15T14:02:58;10.53;;;4.90;;
68108;SDS011;54893;49.864;19.084;2024-02-15T14:08:00;10.75;;;5.20;;
68108;SDS011;54893;49.864;19.084;2024-02-15T14:13:11;11.68;;;5.82;;
68108;SDS011;54893;49.864;19.084;2024-02-15T14:18:13;11.32;;;5.18;;
68108;SDS011;54893;49.864;19.084;2024-02-15T14:23:13;14.40;;;6.10;;
68108;SDS011;54893;49.864;19.084;2024-02-15T14:28:14;13.63;;;5.90;;
68108;SDS011;54893;49.864;19.084;2024-02-15T14:33:14;12.07;;;6.30;;
68108;SDS011;54893;49.864;19.084;2024-02-15T14:38:16;13.20;;;6.72;;
68108;SDS011;54893;49.864;19.084;2024-02-15T14:43:25;13.02;;;5.60;;
68108;SDS011;54893;49.864;19.084;2024-02-15T14:48:26;15.77;;;8.47;;
68108;SDS011;54893;49.864;19.084;2024-02-15T14:53:27;20.48;;;9.55;;
68108;SDS011;54893;49.864;19.084;2024-02-15T14:58:27;21.53;;;10.20;;
68108;SDS011;54893;49.864;19.084;2024-02-15T15:03:31;15.37;;;6.77;;
68108;SDS011;54893;49.864;19.084;2024-02-15T15:08:37;15.83;;;6.70;;
68108;SDS011;54893;49.864;19.084;2024-02-15T15:13:56;12.25;;;5.95;;
68108;SDS011;54893;49.864;19.084;2024-02-15T15:18:56;15.50;;;5.27;;
68108;SDS011;54893;49.864;19.084;2024-02-15T15:23:57;13.77;;;5.80;;
68108;SDS011;54893;49.864;19.084;2024-02-15T15:28:57;12.73;;;5.50;;
68108;SDS011;54893;49.864;19.084;2024-02-15T15:33:58;18.40;;;6.85;;
68108;SDS011;54893;49.864;19.084;2024-02-15T15:38:59;16.40;;;6.73;;
68108;SDS011;54893;49.864;19.084;2024-02-15T15:44:01;14.68;;;7.05;;
68108;SDS011;54893;49.864;19.084;2024-02-15T15:49:01;15.75;;;7.25;;
68108;SDS011;54893;49.864;19.084;2024-02-15T15:54:04;20.42;;;7.85;;
68108;SDS011;54893;49.864;19.084;2024-02-15T15:59:04;18.70;;;8.07;;
68108;SDS011;54893;49.864;19.084;2024-02-15T16:04:05;18.52;;;8.57;;
68108;SDS011;54893;49.864;19.084;2024-02-15T16:09:06;22.30;;;8.40;;
68108;SDS011;54893;49.864;19.084;2024-02-15T16:14:09;21.87;;;9.17;;
68108;SDS011;54893;49.864;19.084;2024-02-15T16:19:11;20.48;;;8.77;;
68108;SDS011;54893;49.864;19.084;2024-02-15T16:24:11;19.77;;;8.90;;
68108;SDS011;54893;49.864;19.084;2024-02-15T16:29:12;23.70;;;7.93;;
68108;SDS011;54893;49.864;19.084;2024-02-15T16:34:13;19.10;;;7.33;;
68108;SDS011;54893;49.864;19.084;2024-02-15T16:39:13;20.42;;;8.38;;
68108;SDS011;54893;49.864;19.084;2024-02-15T16:44:15;24.30;;;9.80;;
68108;SDS011;54893;49.864;19.084;2024-02-15T16:49:15;25.42;;;12.45;;
68108;SDS011;54893;49.864;19.084;2024-02-15T16:54:16;29.63;;;12.57;;
68108;SDS011;54893;49.864;19.084;2024-02-15T16:59:16;38.63;;;15.87;;
68108;SDS011;54893;49.864;19.084;2024-02-15T17:04:18;39.07;;;15.37;;
68108;SDS011;54893;49.864;19.084;2024-02-15T17:09:19;33.00;;;14.20;;
68108;SDS011;54893;49.864;19.084;2024-02-15T17:14:20;31.90;;;12.95;;
68108;SDS011;54893;49.864;19.084;2024-02-15T17:19:20;29.67;;;12.80;;
68108;SDS011;54893;49.864;19.084;2024-02-15T17:24:20;35.97;;;13.03;;
68108;SDS011;54893;49.864;19.084;2024-02-15T17:29:21;32.93;;;13.33;;
68108;SDS011;54893;49.864;19.084;2024-02-15T17:34:22;27.40;;;11.90;;
68108;SDS011;54893;49.864;19.084;2024-02-15T17:39:23;30.05;;;10.73;;
68108;SDS011;54893;49.864;19.084;2024-02-15T17:44:23;23.30;;;10.60;;
68108;SDS011;54893;49.864;19.084;2024-02-15T17:49:24;21.43;;;10.07;;
68108;SDS011;54893;49.864;19.084;2024-02-15T17:54:25;31.58;;;13.13;;
68108;SDS011;54893;49.864;19.084;2024-02-15T17:59:26;44.50;;;17.92;;
68108;SDS011;54893;49.864;19.084;2024-02-15T18:04:26;31.80;;;14.40;;
68108;SDS011;54893;49.864;19.084;2024-02-15T18:09:27;31.60;;;12.87;;
68108;SDS011;54893;49.864;19.084;2024-02-15T18:14:28;26.73;;;12.53;;
68108;SDS011;54893;49.864;19.084;2024-02-15T18:19:28;31.63;;;12.67;;
68108;SDS011;54893;49.864;19.084;2024-02-15T18:24:29;32.10;;;12.57;;
68108;SDS011;54893;49.864;19.084;2024-02-15T18:29:29;34.03;;;14.63;;
68108;SDS011;54893;49.864;19.084;2024-02-15T18:34:31;35.25;;;15.43;;
68108;SDS011;54893;49.864;19.084;2024-02-15T18:39:32;33.07;;;13.77;;
68108;SDS011;54893;49.864;19.084;2024-02-15T18:44:33;32.50;;;13.30;;
68108;SDS011;54893;49.864;19.084;2024-02-15T18:49:35;37.77;;;14.57;;
68108;SDS011;54893;49.864;19.084;2024-02-15T18:54:37;33.47;;;13.70;;
68108;SDS011;54893;49.864;19.084;2024-02-15T18:59:40;29.10;;;11.00;;
68108;SDS011;54893;49.864;19.084;2024-02-15T19:04:41;24.10;;;10.70;;
68108;SDS011;54893;49.864;19.084;2024-02-15T19:09:41;28.43;;;10.70;;
68108;SDS011;54893;49.864;19.084;2024-02-15T19:14:42;22.20;;;9.47;;
68108;SDS011;54893;49.864;19.084;2024-02-15T19:19:42;24.00;;;9.27;;
68108;SDS011;54893;49.864;19.084;2024-02-15T19:24:43;20.95;;;8.68;;
68108;SDS011;54893;49.864;19.084;2024-02-15T19:29:43;24.90;;;9.53;;
68108;SDS011;54893;49.864;19.084;2024-02-15T19:34:44;18.43;;;8.53;;
68108;SDS011;54893;49.864;19.084;2024-02-15T19:39:44;21.13;;;8.40;;
68108;SDS011;54893;49.864;19.084;2024-02-15T19:44:49;19.25;;;8.57;;
68108;SDS011;54893;49.864;19.084;2024-02-15T19:49:49;22.40;;;9.43;;
68108;SDS011;54893;49.864;19.084;2024-02-15T19:54:49;21.13;;;9.13;;
68108;SDS011;54893;49.864;19.084;2024-02-15T19:59:50;21.23;;;7.27;;
68108;SDS011;54893;49.864;19.084;2024-02-15T20:04:51;15.80;;;6.20;;
68108;SDS011;54893;49.864;19.084;2024-02-15T20:09:52;17.85;;;6.28;;
68108;SDS011;54893;49.864;19.084;2024-02-15T20:14:52;16.73;;;6.00;;
68108;SDS011;54893;49.864;19.084;2024-02-15T20:19:52;13.53;;;5.50;;
68108;SDS011;54893;49.864;19.084;2024-02-15T20:24:53;16.58;;;5.70;;
68108;SDS011;54893;49.864;19.084;2024-02-15T20:29:54;15.53;;;5.70;;
68108;SDS011;54893;49.864;19.084;2024-02-15T20:34:55;18.25;;;6.22;;
68108;SDS011;54893;49.864;19.084;2024-02-15T20:39:56;17.60;;;6.40;;
68108;SDS011;54893;49.864;19.084;2024-02-15T20:44:56;19.27;;;6.63;;
68108;SDS011;54893;49.864;19.084;2024-02-15T20:49:58;22.95;;;8.63;;
68108;SDS011;54893;49.864;19.084;2024-02-15T20:54:58;23.83;;;8.10;;
68108;SDS011;54893;49.864;19.084;2024-02-15T20:59:59;20.47;;;6.70;;
68108;SDS011;54893;49.864;19.084;2024-02-15T21:05:00;26.83;;;11.33;;
68108;SDS011;54893;49.864;19.084;2024-02-15T21:10:01;31.93;;;14.07;;
68108;SDS011;54893;49.864;19.084;2024-02-15T21:15:04;48.92;;;20.65;;
68108;SDS011;54893;49.864;19.084;2024-02-15T21:20:09;50.60;;;20.83;;
68108;SDS011;54893;49.864;19.084;2024-02-15T21:25:13;47.72;;;19.50;;
68108;SDS011;54893;49.864;19.084;2024-02-15T21:30:14;57.40;;;23.00;;
68108;SDS011;54893;49.864;19.084;2024-02-15T21:35:14;59.72;;;23.73;;
68108;SDS011;54893;49.864;19.084;2024-02-15T21:40:15;80.93;;;32.37;;
68108;SDS011;54893;49.864;19.084;2024-02-15T21:45:15;91.07;;;37.73;;
68108;SDS011;54893;49.864;19.084;2024-02-15T21:50:16;98.47;;;44.07;;
68108;SDS011;54893;49.864;19.084;2024-02-15T21:55:16;95.23;;;42.23;;
68108;SDS011;54893;49.864;19.084;2024-02-15T22:00:16;85.23;;;36.00;;
68108;SDS011;54893;49.864;19.084;2024-02-15T22:05:17;71.87;;;29.07;;
68108;SDS011;54893;49.864;19.084;2024-02-15T22:10:17;49.37;;;19.47;;
68108;SDS011;54893;49.864;19.084;2024-02-15T22:15:18;35.93;;;15.33;;
68108;SDS011;54893;49.864;19.084;2024-02-15T22:20:18;35.70;;;14.67;;
68108;SDS011;54893;49.864;19.084;2024-02-15T22:25:19;28.33;;;12.40;;
68108;SDS011;54893;49.864;19.084;2024-02-15T22:30:19;30.43;;;13.20;;
68108;SDS011;54893;49.864;19.084;2024-02-15T22:35:19;29.87;;;11.53;;
68108;SDS011;54893;49.864;19.084;2024-02-15T22:40:20;25.57;;;11.47;;
68108;SDS011;54893;49.864;19.084;2024-02-15T22:45:20;37.43;;;15.33;;
68108;SDS011;54893;49.864;19.084;2024-02-15T22:50:20;33.33;;;13.50;;
68108;SDS011;54893;49.864;19.084;2024-02-15T22:55:22;42.63;;;17.88;;
68108;SDS011;54893;49.864;19.084;2024-02-15T23:00:22;46.80;;;19.27;;
68108;SDS011;54893;49.864;19.084;2024-02-15T23:05:23;44.17;;;18.80;;
68108;SDS011;54893;49.864;19.084;2024-02-15T23:10:23;48.27;;;20.90;;
68108;SDS011;54893;49.864;19.084;2024-02-15T23:15:24;46.50;;;18.17;;
68108;SDS011;54893;49.864;19.084;2024-02-15T23:20:24;45.57;;;18.00;;
68108;SDS011;54893;49.864;19.084;2024-02-15T23:25:25;39.43;;;15.87;;
68108;SDS011;54893;49.864;19.084;2024-02-15T23:30:25;31.70;;;12.50;;
68108;SDS011;54893;49.864;19.084;2024-02-15T23:35:26;25.87;;;10.53;;
68108;SDS011;54893;49.864;19.084;2024-02-15T23:40:32;18.35;;;7.72;;
68108;SDS011;54893;49.864;19.084;2024-02-15T23:45:32;16.87;;;6.70;;
68108;SDS011;54893;49.864;19.084;2024-02-15T23:50:34;14.93;;;5.90;;
68108;SDS011;54893;49.864;19.084;2024-02-15T23:55:35;14.40;;;6.10;;
